Historyczne dane pomiarowe

Dodano dane terminowe – wersja testowa.

Dane z okresu 1951-2019

Wersja bazy: 1.34 [2019-03-16, lista zmian], aktualizacja planowana na 2019-04-15

Dane meteo z obszaru Polski uzyskane na podstawie danych udostępnionych przez Instytut Meteorologii i Gospodarki Wodnej – Państwowy Instytut Badawczy.

 

Wybierz Datę:    

       

TemperaturaWilgotnośćZachmurzenieWiatrCiśnienieWidzialnośćZjawiska
 Data    tng td wb rh cc ccl cl cm ch dir g1 g2 mslp ppp      
1994-06-27 00:00:00 15.8--- 14.5 15.092wxwx0wx--1019.0 978.5 0.0---wx
1994-06-27 01:00:00 14.8--- 13.8 14.294wxwx0wx--1019.4 978.7----wx
1994-06-27 02:00:00 14.8--- 13.8 14.294wxwx0wx--1019.4 978.7----wx
1994-06-27 03:00:00 13.8--- 13.5 13.698wxwx0wx--1019.8 979.0----wx
1994-06-27 04:00:00 14.0--- 13.3 13.696wxwxwx0wx--1020.1 979.3----wx
1994-06-27 05:00:00 16.0--- 14.4 15.090wxwxwx0wx--1020.1 979.6----wx
1994-06-27 06:00:00 19.2--- 17.0 17.887wxwxwx0wx--1019.7 979.6 0.0---wx
1994-06-27 07:00:00 23.4--- 18.0 19.872wxwxwx0wx--1018.9 979.4----wx
1994-06-27 08:00:00 25.5--- 17.7 20.362wxwxwx0wx--1018.9 979.7----wx
1994-06-27 09:00:00 28.1--- 17.4 21.052wxwxwx0wx--1018.7 979.8----wx
1994-06-27 10:00:00 29.2--- 17.4 21.349wxwxwxwx0wx--1018.5 979.8----wx
1994-06-27 11:00:00 29.3--- 19.1 22.354wxwxwxwx2wx--1018.4 979.7----wx
1994-06-27 12:00:00 28.8--- 18.6 21.954wxwxwxwx2wx--1018.5 979.7 0.0---wx
1994-06-27 13:00:00 29.8--- 18.1 21.950wxwxwx2wx--1018.6 979.9----wx
1994-06-27 14:00:00 29.8--- 17.9 21.849wxwxwx1wx--1018.5 979.8----wx
1994-06-27 15:00:00 29.6--- 18.4 22.051wxwxwx1wx--1018.5 979.8----wx
1994-06-27 16:00:00 28.7--- 18.5 21.854wxwxwx1wx--1018.5 979.7----wx
1994-06-27 17:00:00 28.3--- 17.9 21.353wxwxwxwx0wx--1018.9 980.0----wx
1994-06-27 18:00:00 27.0--- 18.9 21.561wxwxwxwx0wx--1018.9 979.9 0.0---wx
1994-06-27 19:00:00 25.2--- 19.1 21.169wxwxwxwx0wx--1019.5 980.2----wx
1994-06-27 20:00:00 23.3--- 18.8 20.376wxwxwxwx0wx--1020.4 980.8----wx
1994-06-27 21:00:00 21.6--- 18.9 19.885wxwxwxwx0wx--1020.7 980.9----wx
1994-06-27 22:00:00 20.4--- 18.0 18.886wxwxwxwx0wx--1021.2 981.2----wx
1994-06-27 23:00:00 19.2--- 17.3 18.089wxwxwx0wx--1021.3 981.2----wx

 

Źródłem pochodzenia danych jest Instytut Meteorologii i Gospodarki Wodnej – Państwowy Instytut Badawczy. Dane Instytutu Meteorologii i Gospodarki Wodnej – Państwowego Instytutu Badawczego zostały przetworzone.

Dane źródłowe można odnaleźć na stronie https://dane.imgw.pl